Terminal Aerodrome Forecast
Issued by NWS

Home | Current Version | Previous Version | Text Only | Print | Product List | Glossary On
Versions: 1 2 3 4 5 6 7 8 9 10 11 12 13 14 15
107
FTUS42 KTBW 041134
TAFPGD
TAF
KPGD 041134Z 0412/0512 13005KT 4SM BR FEW015 BKN030 BKN100
     FM041400 22007KT P6SM VCSH BKN025 BKN035
     FM041600 23011G18KT 6SM TSRA SCT015 BKN020CB BKN035
     FM050200 30010KT P6SM SCT025 SCT100=

USA.gov is the U.S. government's official web portal to all federal, state and local government web resources and services.